Hauptseite
METAR-TAF:

METAR-TAF

Flughäfen :

Yap, Yap Island, Mikronesien

Breite: 09-29N, Länge: 138-05E, Höhe: 28 m

Beobachtung

Neuester Wetterbericht von vor 45 Minuten, um 15:53 UTC
Wind 4 kt aus unterschiedlichen Richtungen
Temperatur 26°C
Luftfeuchtigkeit 94%
Luftdruck 1009 hPa
Sichtweite: 19.3 km
Leicht bewölkt in der Höhe von 1600 ft
Durchbrochene Bewölkung in der Höhe von 30000 ft

METAR: PTYA 271553Z VRB04KT 12SM FEW016 BKN300 26/25 A2980 RMK SLP093 T02610246

Zeit: 02:38 (16:38 UTC)

Prognose

Neuester Wetterbericht von vor 4 Stunden und 59 Minuten, um 11:39 UTC
Gültige Prognose vom 27 um 12 UTC bis 28 um 12 UTC
Wind 4 kt aus unterschiedlichen Richtungen
Sichtweite: 10 km
Aufgelockert bewölkt in der Höhe von 1600 ft
Durchbrochene Bewölkung in der Höhe von 12000 ft
Schauer in der Nähe

TAF: PTYA 271139Z 2712/2812 VRB04KT P6SM VCSH SCT016 BKN120

Wetterbeobachtungen und Prognosen von mehr als 4000 Flughäfen (METAR und TAF Bericht).

Die verfügbaren Stationen werden durch gelbe und rote Markierungen auf der Karte dargestellt.

Führen Sie die Maus auf sie, um den Namen der Station zu sehen.

Darauf klicken, um die Beobachtung von Wetterbeobachtungen und Prognosen zu sehen.

Um die Karte zu ändern : klicken Sie auf den grünen Tasten mit einem schwarzen Kreuz Zum Vergrößern, auf den grünen Button mit einem Gedankenstrich zu verkleinern, oder auf die grünen Pfeile für benachbarte Karten.


METAR-TAF: